sensor_id;sensor_type;location;lat;lon;timestamp;pressure;altitude;pressure_sealevel;temperature;humidity
10688;BME280;5392;42.688;23.298;2023-03-14T00:00:10;57344.53;;;-144.48;83.84
10688;BME280;5392;42.688;23.298;2023-03-14T00:02:37;57350.81;;;-144.48;80.34
10688;BME280;5392;42.688;23.298;2023-03-14T00:05:05;57392.56;;;-144.48;77.24
10688;BME280;5392;42.688;23.298;2023-03-14T00:07:37;57382.13;;;-144.48;76.02
10688;BME280;5392;42.688;23.298;2023-03-14T00:10:08;57384.19;;;-144.48;74.72
10688;BME280;5392;42.688;23.298;2023-03-14T00:12:35;57377.94;;;-144.48;74.64
10688;BME280;5392;42.688;23.298;2023-03-14T00:15:03;57352.91;;;-144.48;75.08
10688;BME280;5392;42.688;23.298;2023-03-14T00:17:31;57380.03;;;-144.48;74.76
10688;BME280;5392;42.688;23.298;2023-03-14T00:19:58;57409.25;;;-144.48;74.90
10688;BME280;5392;42.688;23.298;2023-03-14T00:22:31;57411.34;;;-144.48;75.27
10688;BME280;5392;42.688;23.298;2023-03-14T00:25:00;57361.25;;;-144.48;75.26
10688;BME280;5392;42.688;23.298;2023-03-14T00:27:27;57365.41;;;-144.48;75.55
10688;BME280;5392;42.688;23.298;2023-03-14T00:29:53;57394.63;;;-144.48;76.19
10688;BME280;5392;42.688;23.298;2023-03-14T00:32:20;57405.06;;;-144.48;76.04
10688;BME280;5392;42.688;23.298;2023-03-14T00:34:47;57403.00;;;-144.48;76.07
10688;BME280;5392;42.688;23.298;2023-03-14T00:37:14;57359.16;;;-144.48;75.86
10688;BME280;5392;42.688;23.298;2023-03-14T00:39:41;57392.56;;;-144.48;76.49
10688;BME280;5392;42.688;23.298;2023-03-14T00:42:07;57382.13;;;-144.48;76.42
10688;BME280;5392;42.688;23.298;2023-03-14T00:44:34;57365.41;;;-144.48;77.41
10688;BME280;5392;42.688;23.298;2023-03-14T00:47:01;57346.63;;;-144.48;77.10
10688;BME280;5392;42.688;23.298;2023-03-14T00:49:28;57375.84;;;-144.48;77.18
10688;BME280;5392;42.688;23.298;2023-03-14T00:51:54;57394.63;;;-144.48;77.95
10688;BME280;5392;42.688;23.298;2023-03-14T00:54:21;57388.38;;;-144.48;77.46
10688;BME280;5392;42.688;23.298;2023-03-14T00:56:48;57396.72;;;-144.48;78.29
10688;BME280;5392;42.688;23.298;2023-03-14T00:59:15;57371.69;;;-144.48;78.60
10688;BME280;5392;42.688;23.298;2023-03-14T01:01:43;57367.50;;;-144.48;78.43
10688;BME280;5392;42.688;23.298;2023-03-14T01:04:10;57332.03;;;-144.48;80.13
10688;BME280;5392;42.688;23.298;2023-03-14T01:06:36;57380.03;;;-144.48;79.79
10688;BME280;5392;42.688;23.298;2023-03-14T01:09:03;57371.69;;;-144.48;80.01
10688;BME280;5392;42.688;23.298;2023-03-14T01:11:32;57365.41;;;-144.48;81.36
10688;BME280;5392;42.688;23.298;2023-03-14T01:14:00;57388.38;;;-144.48;81.67
10688;BME280;5392;42.688;23.298;2023-03-14T01:16:30;57371.69;;;-144.48;81.62
10688;BME280;5392;42.688;23.298;2023-03-14T01:18:57;57367.50;;;-144.48;81.88
10688;BME280;5392;42.688;23.298;2023-03-14T01:21:30;57375.84;;;-144.48;83.47
10688;BME280;5392;42.688;23.298;2023-03-14T01:23:58;57377.94;;;-144.48;83.24
10688;BME280;5392;42.688;23.298;2023-03-14T01:26:27;57409.25;;;-144.48;84.38
10688;BME280;5392;42.688;23.298;2023-03-14T01:28:55;57365.41;;;-144.48;85.25
10688;BME280;5392;42.688;23.298;2023-03-14T01:31:23;57382.13;;;-144.48;89.13
10688;BME280;5392;42.688;23.298;2023-03-14T01:33:51;57384.19;;;-144.48;91.66
10688;BME280;5392;42.688;23.298;2023-03-14T01:36:18;57352.91;;;-144.48;91.51
10688;BME280;5392;42.688;23.298;2023-03-14T01:38:45;57394.63;;;-144.48;92.94
10688;BME280;5392;42.688;23.298;2023-03-14T01:41:15;57380.03;;;-144.48;92.75
10688;BME280;5392;42.688;23.298;2023-03-14T01:43:42;57354.97;;;-144.48;94.82
10688;BME280;5392;42.688;23.298;2023-03-14T01:46:21;57384.19;;;-144.48;95.91
10688;BME280;5392;42.688;23.298;2023-03-14T01:51:22;57365.41;;;-144.48;100.00
10688;BME280;5392;42.688;23.298;2023-03-14T01:53:53;57359.16;;;-144.48;100.00
10688;BME280;5392;42.688;23.298;2023-03-14T01:56:22;57380.03;;;-144.48;100.00
10688;BME280;5392;42.688;23.298;2023-03-14T01:58:50;57367.50;;;-144.48;100.00
10688;BME280;5392;42.688;23.298;2023-03-14T02:01:20;57392.56;;;-144.48;100.00
10688;BME280;5392;42.688;23.298;2023-03-14T02:03:59;57354.97;;;-144.48;100.00
10688;BME280;5392;42.688;23.298;2023-03-14T02:06:34;57359.16;;;-144.48;100.00
10688;BME280;5392;42.688;23.298;2023-03-14T02:09:02;57392.56;;;-144.48;100.00
10688;BME280;5392;42.688;23.298;2023-03-14T02:11:31;57373.75;;;-144.48;100.00
10688;BME280;5392;42.688;23.298;2023-03-14T02:13:59;57388.38;;;-144.48;100.00
10688;BME280;5392;42.688;23.298;2023-03-14T02:16:27;57357.06;;;-144.48;100.00
10688;BME280;5392;42.688;23.298;2023-03-14T02:18:54;57371.69;;;-144.48;100.00
10688;BME280;5392;42.688;23.298;2023-03-14T02:27:13;57388.38;;;-144.48;100.00
10688;BME280;5392;42.688;23.298;2023-03-14T02:29:13;57377.94;;;-144.48;100.00
10688;BME280;5392;42.688;23.298;2023-03-14T02:31:39;57380.03;;;-144.48;100.00
10688;BME280;5392;42.688;23.298;2023-03-14T02:34:06;57377.94;;;-144.48;100.00
10688;BME280;5392;42.688;23.298;2023-03-14T02:36:34;57375.84;;;-144.48;100.00
10688;BME280;5392;42.688;23.298;2023-03-14T02:39:20;57367.50;;;-144.48;100.00
10688;BME280;5392;42.688;23.298;2023-03-14T02:41:48;57371.69;;;-144.48;100.00
10688;BME280;5392;42.688;23.298;2023-03-14T02:44:15;57342.47;;;-144.48;100.00
10688;BME280;5392;42.688;23.298;2023-03-14T02:46:42;57369.59;;;-144.48;100.00
10688;BME280;5392;42.688;23.298;2023-03-14T02:49:12;57398.81;;;-144.48;100.00
10688;BME280;5392;42.688;23.298;2023-03-14T02:51:41;57384.19;;;-144.48;100.00
10688;BME280;5392;42.688;23.298;2023-03-14T02:54:09;57388.38;;;-144.48;100.00
10688;BME280;5392;42.688;23.298;2023-03-14T02:56:37;57390.47;;;-144.48;100.00
10688;BME280;5392;42.688;23.298;2023-03-14T02:59:04;57361.25;;;-144.48;100.00
10688;BME280;5392;42.688;23.298;2023-03-14T03:01:31;57375.84;;;-144.48;100.00
10688;BME280;5392;42.688;23.298;2023-03-14T03:03:58;57365.41;;;-144.48;100.00
10688;BME280;5392;42.688;23.298;2023-03-14T03:06:25;57357.06;;;-144.48;100.00
10688;BME280;5392;42.688;23.298;2023-03-14T03:08:52;57388.38;;;-144.48;100.00
10688;BME280;5392;42.688;23.298;2023-03-14T03:11:19;57359.16;;;-144.48;100.00
10688;BME280;5392;42.688;23.298;2023-03-14T03:13:45;57394.63;;;-144.48;100.00
10688;BME280;5392;42.688;23.298;2023-03-14T03:16:12;57396.72;;;-144.48;100.00
10688;BME280;5392;42.688;23.298;2023-03-14T03:18:41;57405.06;;;-144.48;100.00
10688;BME280;5392;42.688;23.298;2023-03-14T03:21:08;57338.28;;;-144.48;100.00
10688;BME280;5392;42.688;23.298;2023-03-14T03:23:35;57384.19;;;-144.48;100.00
10688;BME280;5392;42.688;23.298;2023-03-14T03:26:02;57392.56;;;-144.48;100.00
10688;BME280;5392;42.688;23.298;2023-03-14T03:28:29;57405.06;;;-144.48;100.00
10688;BME280;5392;42.688;23.298;2023-03-14T03:30:56;57386.28;;;-144.48;100.00
10688;BME280;5392;42.688;23.298;2023-03-14T03:33:23;57388.38;;;-144.48;100.00
10688;BME280;5392;42.688;23.298;2023-03-14T03:35:51;57413.44;;;-144.48;100.00
10688;BME280;5392;42.688;23.298;2023-03-14T03:38:18;57359.16;;;-144.48;100.00
10688;BME280;5392;42.688;23.298;2023-03-14T03:40:46;57409.25;;;-144.48;100.00
10688;BME280;5392;42.688;23.298;2023-03-14T03:43:13;57373.75;;;-144.48;100.00
10688;BME280;5392;42.688;23.298;2023-03-14T03:45:40;57386.28;;;-144.48;100.00
10688;BME280;5392;42.688;23.298;2023-03-14T03:48:07;57344.53;;;-144.48;100.00
10688;BME280;5392;42.688;23.298;2023-03-14T03:50:34;57390.47;;;-144.48;100.00
10688;BME280;5392;42.688;23.298;2023-03-14T03:53:01;57348.72;;;-144.48;100.00
10688;BME280;5392;42.688;23.298;2023-03-14T03:55:27;57363.31;;;-144.48;100.00
10688;BME280;5392;42.688;23.298;2023-03-14T03:57:54;57396.72;;;-144.48;100.00
10688;BME280;5392;42.688;23.298;2023-03-14T04:00:21;57367.50;;;-144.48;100.00
10688;BME280;5392;42.688;23.298;2023-03-14T04:02:48;57400.91;;;-144.48;100.00
10688;BME280;5392;42.688;23.298;2023-03-14T04:05:15;57398.81;;;-144.48;100.00
10688;BME280;5392;42.688;23.298;2023-03-14T04:07:41;57352.91;;;-144.48;100.00
10688;BME280;5392;42.688;23.298;2023-03-14T04:10:09;57375.84;;;-144.48;100.00
10688;BME280;5392;42.688;23.298;2023-03-14T04:12:35;57425.94;;;-144.48;100.00
10688;BME280;5392;42.688;23.298;2023-03-14T04:15:02;57400.91;;;-144.48;100.00
10688;BME280;5392;42.688;23.298;2023-03-14T04:17:29;57361.25;;;-144.48;100.00
10688;BME280;5392;42.688;23.298;2023-03-14T04:19:55;57388.38;;;-144.48;100.00
10688;BME280;5392;42.688;23.298;2023-03-14T04:22:22;57365.41;;;-144.48;100.00
10688;BME280;5392;42.688;23.298;2023-03-14T04:24:49;57400.91;;;-144.48;100.00
10688;BME280;5392;42.688;23.298;2023-03-14T04:27:15;57363.31;;;-144.48;100.00
10688;BME280;5392;42.688;23.298;2023-03-14T04:29:42;57327.84;;;-144.48;100.00
10688;BME280;5392;42.688;23.298;2023-03-14T04:32:09;57357.06;;;-144.48;100.00
10688;BME280;5392;42.688;23.298;2023-03-14T04:34:36;57371.69;;;-144.48;100.00
10688;BME280;5392;42.688;23.298;2023-03-14T04:37:03;57380.03;;;-144.48;100.00
10688;BME280;5392;42.688;23.298;2023-03-14T04:39:30;57359.16;;;-144.48;100.00
10688;BME280;5392;42.688;23.298;2023-03-14T04:41:56;57361.25;;;-144.48;100.00
10688;BME280;5392;42.688;23.298;2023-03-14T04:44:23;57365.41;;;-144.48;100.00
10688;BME280;5392;42.688;23.298;2023-03-14T04:46:50;57375.84;;;-144.48;100.00
10688;BME280;5392;42.688;23.298;2023-03-14T04:49:17;57382.13;;;-144.48;100.00
10688;BME280;5392;42.688;23.298;2023-03-14T04:51:44;57398.81;;;-144.48;100.00
10688;BME280;5392;42.688;23.298;2023-03-14T04:54:10;57390.47;;;-144.48;100.00
10688;BME280;5392;42.688;23.298;2023-03-14T04:56:37;57380.03;;;-144.48;100.00
10688;BME280;5392;42.688;23.298;2023-03-14T04:59:04;57352.91;;;-144.48;100.00
10688;BME280;5392;42.688;23.298;2023-03-14T05:01:31;57367.50;;;-144.48;100.00
10688;BME280;5392;42.688;23.298;2023-03-14T05:03:58;57390.47;;;-144.48;95.13
10688;BME280;5392;42.688;23.298;2023-03-14T05:06:24;57386.28;;;-144.48;92.44
10688;BME280;5392;42.688;23.298;2023-03-14T05:08:51;57392.56;;;-144.48;91.52
10688;BME280;5392;42.688;23.298;2023-03-14T05:11:18;57380.03;;;-144.48;91.53
10688;BME280;5392;42.688;23.298;2023-03-14T05:13:45;57359.16;;;-144.48;91.94
10688;BME280;5392;42.688;23.298;2023-03-14T05:16:11;57394.63;;;-144.48;90.11
10688;BME280;5392;42.688;23.298;2023-03-14T05:18:38;57407.16;;;-144.48;84.62
10688;BME280;5392;42.688;23.298;2023-03-14T05:21:05;57373.75;;;-144.48;78.35
10688;BME280;5392;42.688;23.298;2023-03-14T05:23:32;57388.38;;;-144.48;72.21
10688;BME280;5392;42.688;23.298;2023-03-14T05:25:59;57382.13;;;-144.48;70.09
10688;BME280;5392;42.688;23.298;2023-03-14T05:28:25;57405.06;;;-144.48;66.55
10688;BME280;5392;42.688;23.298;2023-03-14T05:30:52;57363.31;;;-144.48;65.63
10688;BME280;5392;42.688;23.298;2023-03-14T05:33:18;57382.13;;;-144.48;64.30
10688;BME280;5392;42.688;23.298;2023-03-14T05:35:45;57354.97;;;-144.48;62.33
10688;BME280;5392;42.688;23.298;2023-03-14T05:38:12;57386.28;;;-144.48;60.78
10688;BME280;5392;42.688;23.298;2023-03-14T05:40:38;57386.28;;;-144.48;59.99
10688;BME280;5392;42.688;23.298;2023-03-14T05:43:05;57371.69;;;-144.48;58.86
10688;BME280;5392;42.688;23.298;2023-03-14T05:45:34;57392.56;;;-144.48;58.64
10688;BME280;5392;42.688;23.298;2023-03-14T05:48:01;57434.28;;;-144.48;58.88
10688;BME280;5392;42.688;23.298;2023-03-14T05:50:28;57375.84;;;-144.48;59.34
10688;BME280;5392;42.688;23.298;2023-03-14T05:52:55;57386.28;;;-144.48;58.89
10688;BME280;5392;42.688;23.298;2023-03-14T05:55:22;57361.25;;;-144.48;59.09
10688;BME280;5392;42.688;23.298;2023-03-14T05:57:49;57382.13;;;-144.48;58.50
10688;BME280;5392;42.688;23.298;2023-03-14T06:00:16;57398.81;;;-144.48;58.13
10688;BME280;5392;42.688;23.298;2023-03-14T06:02:43;57398.81;;;-144.48;58.23
10688;BME280;5392;42.688;23.298;2023-03-14T06:05:10;57386.28;;;-144.48;57.73
10688;BME280;5392;42.688;23.298;2023-03-14T06:07:36;57398.81;;;-144.48;57.47
10688;BME280;5392;42.688;23.298;2023-03-14T06:10:04;57377.94;;;-144.48;57.92
10688;BME280;5392;42.688;23.298;2023-03-14T06:12:32;57371.69;;;-144.48;58.52
10688;BME280;5392;42.688;23.298;2023-03-14T06:14:59;57392.56;;;-144.48;59.98
10688;BME280;5392;42.688;23.298;2023-03-14T06:17:25;57407.16;;;-144.48;60.25
10688;BME280;5392;42.688;23.298;2023-03-14T06:19:52;57396.72;;;-144.48;59.66
10688;BME280;5392;42.688;23.298;2023-03-14T06:22:18;57430.13;;;-144.48;59.66
10688;BME280;5392;42.688;23.298;2023-03-14T06:24:46;57342.47;;;-144.48;60.14
10688;BME280;5392;42.688;23.298;2023-03-14T06:27:12;57396.72;;;-144.48;59.28
10688;BME280;5392;42.688;23.298;2023-03-14T06:29:39;57384.19;;;-144.48;58.70
10688;BME280;5392;42.688;23.298;2023-03-14T06:32:06;57371.69;;;-144.48;58.57
10688;BME280;5392;42.688;23.298;2023-03-14T06:34:32;57342.47;;;-144.48;57.77
10688;BME280;5392;42.688;23.298;2023-03-14T06:36:59;57369.59;;;-144.48;58.10
10688;BME280;5392;42.688;23.298;2023-03-14T06:39:26;57394.63;;;-144.48;57.85
10688;BME280;5392;42.688;23.298;2023-03-14T06:41:52;57373.75;;;-144.48;58.15
10688;BME280;5392;42.688;23.298;2023-03-14T06:44:19;57361.25;;;-144.48;58.17
10688;BME280;5392;42.688;23.298;2023-03-14T06:46:46;57375.84;;;-144.48;57.50
10688;BME280;5392;42.688;23.298;2023-03-14T06:49:12;57386.28;;;-144.48;57.29
10688;BME280;5392;42.688;23.298;2023-03-14T06:51:39;57382.13;;;-144.48;56.71
10688;BME280;5392;42.688;23.298;2023-03-14T06:54:06;57350.81;;;-144.48;57.10
10688;BME280;5392;42.688;23.298;2023-03-14T06:56:32;57373.75;;;-144.48;56.89
10688;BME280;5392;42.688;23.298;2023-03-14T06:58:59;57357.06;;;-144.48;57.28
10688;BME280;5392;42.688;23.298;2023-03-14T07:01:28;57367.50;;;-144.48;58.21
10688;BME280;5392;42.688;23.298;2023-03-14T07:03:56;57382.13;;;-144.48;59.11
10688;BME280;5392;42.688;23.298;2023-03-14T07:06:23;57394.63;;;-144.48;58.88
10688;BME280;5392;42.688;23.298;2023-03-14T07:08:51;57377.94;;;-144.48;57.54
10688;BME280;5392;42.688;23.298;2023-03-14T07:11:17;57375.84;;;-144.48;57.84
10688;BME280;5392;42.688;23.298;2023-03-14T07:13:44;57371.69;;;-144.48;56.68
10688;BME280;5392;42.688;23.298;2023-03-14T07:16:12;57369.59;;;-144.48;56.39
10688;BME280;5392;42.688;23.298;2023-03-14T07:18:40;57394.63;;;-144.48;57.26
10688;BME280;5392;42.688;23.298;2023-03-14T07:21:08;57394.63;;;-144.48;57.02
10688;BME280;5392;42.688;23.298;2023-03-14T07:23:36;57371.69;;;-144.48;57.00
10688;BME280;5392;42.688;23.298;2023-03-14T07:26:04;57367.50;;;-144.48;57.52
10688;BME280;5392;42.688;23.298;2023-03-14T07:28:31;57380.03;;;-144.48;56.58
10688;BME280;5392;42.688;23.298;2023-03-14T07:30:58;57359.16;;;-144.48;56.91
10688;BME280;5392;42.688;23.298;2023-03-14T07:33:26;57336.19;;;-144.48;56.89
10688;BME280;5392;42.688;23.298;2023-03-14T07:35:53;57340.38;;;-144.48;58.32
10688;BME280;5392;42.688;23.298;2023-03-14T07:38:20;57409.25;;;-144.48;58.20
10688;BME280;5392;42.688;23.298;2023-03-14T07:40:48;57388.38;;;-144.48;58.11
10688;BME280;5392;42.688;23.298;2023-03-14T07:43:15;57375.84;;;-144.48;58.24
10688;BME280;5392;42.688;23.298;2023-03-14T07:45:45;57371.69;;;-144.48;57.15
10688;BME280;5392;42.688;23.298;2023-03-14T07:48:16;57361.25;;;-144.48;56.96
10688;BME280;5392;42.688;23.298;2023-03-14T07:50:43;57354.97;;;-144.48;56.55
10688;BME280;5392;42.688;23.298;2023-03-14T07:53:10;57354.97;;;-144.48;57.26
10688;BME280;5392;42.688;23.298;2023-03-14T07:55:36;57411.34;;;-144.48;57.36
10688;BME280;5392;42.688;23.298;2023-03-14T07:58:03;57380.03;;;-144.48;57.83
10688;BME280;5392;42.688;23.298;2023-03-14T08:00:30;57350.81;;;-144.48;58.14
10688;BME280;5392;42.688;23.298;2023-03-14T08:02:56;57382.13;;;-144.48;58.07
10688;BME280;5392;42.688;23.298;2023-03-14T08:05:23;57413.44;;;-144.48;57.76
10688;BME280;5392;42.688;23.298;2023-03-14T08:07:50;57386.28;;;-144.48;57.67
10688;BME280;5392;42.688;23.298;2023-03-14T08:10:17;57375.84;;;-144.48;57.39
10688;BME280;5392;42.688;23.298;2023-03-14T08:12:54;57327.84;;;-144.48;57.54
10688;BME280;5392;42.688;23.298;2023-03-14T08:15:22;57394.63;;;-144.48;57.36
10688;BME280;5392;42.688;23.298;2023-03-14T08:17:50;57382.13;;;-144.48;57.19
10688;BME280;5392;42.688;23.298;2023-03-14T08:20:18;57411.34;;;-144.48;57.09
10688;BME280;5392;42.688;23.298;2023-03-14T08:22:44;57377.94;;;-144.48;57.29
10688;BME280;5392;42.688;23.298;2023-03-14T08:25:11;57352.91;;;-144.48;57.56
10688;BME280;5392;42.688;23.298;2023-03-14T08:27:38;57377.94;;;-144.48;57.45
10688;BME280;5392;42.688;23.298;2023-03-14T08:30:06;57375.84;;;-144.48;57.72
10688;BME280;5392;42.688;23.298;2023-03-14T08:32:34;57367.50;;;-144.48;57.80
10688;BME280;5392;42.688;23.298;2023-03-14T08:35:00;57380.03;;;-144.48;57.41
10688;BME280;5392;42.688;23.298;2023-03-14T08:37:30;57421.78;;;-144.48;57.18
10688;BME280;5392;42.688;23.298;2023-03-14T08:39:57;57396.72;;;-144.48;57.30
10688;BME280;5392;42.688;23.298;2023-03-14T08:42:24;57375.84;;;-144.48;57.10
10688;BME280;5392;42.688;23.298;2023-03-14T08:44:51;57354.97;;;-144.48;56.55
10688;BME280;5392;42.688;23.298;2023-03-14T08:47:19;57352.91;;;-144.48;56.28
10688;BME280;5392;42.688;23.298;2023-03-14T08:49:46;57348.72;;;-144.48;56.88
10688;BME280;5392;42.688;23.298;2023-03-14T08:52:12;57352.91;;;-144.48;56.69
10688;BME280;5392;42.688;23.298;2023-03-14T08:54:39;57371.69;;;-144.48;56.87
10688;BME280;5392;42.688;23.298;2023-03-14T08:57:06;57359.16;;;-144.48;56.83
10688;BME280;5392;42.688;23.298;2023-03-14T08:59:32;57346.63;;;-144.48;57.34
10688;BME280;5392;42.688;23.298;2023-03-14T09:01:59;57375.84;;;-144.48;57.56
10688;BME280;5392;42.688;23.298;2023-03-14T09:04:30;57371.69;;;-144.48;57.24
10688;BME280;5392;42.688;23.298;2023-03-14T09:06:56;57396.72;;;-144.48;56.60
10688;BME280;5392;42.688;23.298;2023-03-14T09:09:25;57365.41;;;-144.48;57.46
10688;BME280;5392;42.688;23.298;2023-03-14T09:11:56;57354.97;;;-144.48;58.00
10688;BME280;5392;42.688;23.298;2023-03-14T09:14:23;57380.03;;;-144.48;58.46
10688;BME280;5392;42.688;23.298;2023-03-14T09:16:50;57377.94;;;-144.48;58.10
10688;BME280;5392;42.688;23.298;2023-03-14T09:19:17;57409.25;;;-144.48;58.38
10688;BME280;5392;42.688;23.298;2023-03-14T09:21:44;57344.53;;;-144.48;58.01
10688;BME280;5392;42.688;23.298;2023-03-14T09:24:10;57348.72;;;-144.48;58.42
10688;BME280;5392;42.688;23.298;2023-03-14T09:26:37;57357.06;;;-144.48;57.73
10688;BME280;5392;42.688;23.298;2023-03-14T09:29:04;57390.47;;;-144.48;57.60
10688;BME280;5392;42.688;23.298;2023-03-14T09:31:31;57382.13;;;-144.48;58.12
10688;BME280;5392;42.688;23.298;2023-03-14T09:33:57;57380.03;;;-144.48;58.17
10688;BME280;5392;42.688;23.298;2023-03-14T09:36:24;57373.75;;;-144.48;58.45
10688;BME280;5392;42.688;23.298;2023-03-14T09:38:51;57340.38;;;-144.48;59.04
10688;BME280;5392;42.688;23.298;2023-03-14T09:41:23;57388.38;;;-144.48;58.82
10688;BME280;5392;42.688;23.298;2023-03-14T09:44:00;57344.53;;;-144.48;58.28
10688;BME280;5392;42.688;23.298;2023-03-14T09:46:29;57369.59;;;-144.48;58.23
10688;BME280;5392;42.688;23.298;2023-03-14T09:48:57;57346.63;;;-144.48;58.98
10688;BME280;5392;42.688;23.298;2023-03-14T09:51:24;57363.31;;;-144.48;58.88
10688;BME280;5392;42.688;23.298;2023-03-14T09:53:52;57403.00;;;-144.48;58.60
10688;BME280;5392;42.688;23.298;2023-03-14T09:58:51;57371.69;;;-144.48;58.03
10688;BME280;5392;42.688;23.298;2023-03-14T10:01:25;57367.50;;;-144.48;57.59
10688;BME280;5392;42.688;23.298;2023-03-14T10:03:55;57407.16;;;-144.48;57.27
10688;BME280;5392;42.688;23.298;2023-03-14T10:06:29;57382.13;;;-144.48;57.44
10688;BME280;5392;42.688;23.298;2023-03-14T10:08:56;57373.75;;;-144.48;57.34
10688;BME280;5392;42.688;23.298;2023-03-14T10:11:24;57361.25;;;-144.48;56.89
10688;BME280;5392;42.688;23.298;2023-03-14T10:14:09;57317.41;;;-144.48;57.07
10688;BME280;5392;42.688;23.298;2023-03-14T10:16:44;57375.84;;;-144.48;56.86
10688;BME280;5392;42.688;23.298;2023-03-14T10:19:14;57377.94;;;-144.48;56.24
10688;BME280;5392;42.688;23.298;2023-03-14T10:21:43;57392.56;;;-144.48;56.17
10688;BME280;5392;42.688;23.298;2023-03-14T10:27:03;57386.28;;;-144.48;56.47
10688;BME280;5392;42.688;23.298;2023-03-14T10:29:33;57380.03;;;-144.48;55.88
10688;BME280;5392;42.688;23.298;2023-03-14T10:32:04;57344.53;;;-144.48;56.07
10688;BME280;5392;42.688;23.298;2023-03-14T10:34:36;57405.06;;;-144.48;56.03
10688;BME280;5392;42.688;23.298;2023-03-14T10:37:07;57344.53;;;-144.48;56.53
10688;BME280;5392;42.688;23.298;2023-03-14T10:39:45;57407.16;;;-144.48;56.87
10688;BME280;5392;42.688;23.298;2023-03-14T10:42:21;57392.56;;;-144.48;56.69
10688;BME280;5392;42.688;23.298;2023-03-14T10:44:56;57365.41;;;-144.48;56.49
10688;BME280;5392;42.688;23.298;2023-03-14T10:47:25;57388.38;;;-144.48;56.65
10688;BME280;5392;42.688;23.298;2023-03-14T10:49:52;57390.47;;;-144.48;56.96
10688;BME280;5392;42.688;23.298;2023-03-14T10:52:25;57346.63;;;-144.48;56.88
10688;BME280;5392;42.688;23.298;2023-03-14T10:55:03;57342.47;;;-144.48;57.18
10688;BME280;5392;42.688;23.298;2023-03-14T10:57:42;57369.59;;;-144.48;57.70
10688;BME280;5392;42.688;23.298;2023-03-14T11:00:22;57377.94;;;-144.48;57.66
10688;BME280;5392;42.688;23.298;2023-03-14T11:05:25;57382.13;;;-144.48;57.32
10688;BME280;5392;42.688;23.298;2023-03-14T11:08:07;57392.56;;;-144.48;57.79
10688;BME280;5392;42.688;23.298;2023-03-14T11:10:38;57411.34;;;-144.48;58.12
10688;BME280;5392;42.688;23.298;2023-03-14T11:16:16;57371.69;;;-144.48;58.22
10688;BME280;5392;42.688;23.298;2023-03-14T11:21:48;57346.63;;;-144.48;57.93
10688;BME280;5392;42.688;23.298;2023-03-14T11:30:02;57354.97;;;-144.48;57.28
10688;BME280;5392;42.688;23.298;2023-03-14T11:32:46;57357.06;;;-144.48;56.99
10688;BME280;5392;42.688;23.298;2023-03-14T11:37:54;57359.16;;;-144.48;57.24
10688;BME280;5392;42.688;23.298;2023-03-14T11:40:25;57365.41;;;-144.48;57.18
10688;BME280;5392;42.688;23.298;2023-03-14T11:46:23;57380.03;;;-144.48;56.99
10688;BME280;5392;42.688;23.298;2023-03-14T11:49:11;57388.38;;;-144.48;56.71
10688;BME280;5392;42.688;23.298;2023-03-14T11:51:42;57384.19;;;-144.48;56.23
10688;BME280;5392;42.688;23.298;2023-03-14T11:57:04;57409.25;;;-144.48;56.50
10688;BME280;5392;42.688;23.298;2023-03-14T12:04:52;57363.31;;;-144.48;56.24
10688;BME280;5392;42.688;23.298;2023-03-14T12:07:23;57380.03;;;-144.48;56.27
10688;BME280;5392;42.688;23.298;2023-03-14T12:09:55;57380.03;;;-144.48;56.05
10688;BME280;5392;42.688;23.298;2023-03-14T12:12:25;57382.13;;;-144.48;56.08
10688;BME280;5392;42.688;23.298;2023-03-14T12:14:56;57377.94;;;-144.48;55.78
10688;BME280;5392;42.688;23.298;2023-03-14T12:17:35;57340.38;;;-144.48;55.54
10688;BME280;5392;42.688;23.298;2023-03-14T12:20:16;57382.13;;;-144.48;55.27
10688;BME280;5392;42.688;23.298;2023-03-14T12:22:46;57377.94;;;-144.48;55.25
10688;BME280;5392;42.688;23.298;2023-03-14T12:25:17;57371.69;;;-144.48;54.74
10688;BME280;5392;42.688;23.298;2023-03-14T12:30:34;57357.06;;;-144.48;55.30
10688;BME280;5392;42.688;23.298;2023-03-14T12:35:47;57407.16;;;-144.48;55.41
10688;BME280;5392;42.688;23.298;2023-03-14T12:38:17;57392.56;;;-144.48;55.07
10688;BME280;5392;42.688;23.298;2023-03-14T12:43:28;57373.75;;;-144.48;55.01
10688;BME280;5392;42.688;23.298;2023-03-14T12:48:54;57388.38;;;-144.48;54.86
10688;BME280;5392;42.688;23.298;2023-03-14T12:51:42;57367.50;;;-144.48;54.64
10688;BME280;5392;42.688;23.298;2023-03-14T12:59:57;57377.94;;;-144.48;54.51
10688;BME280;5392;42.688;23.298;2023-03-14T13:02:27;57329.94;;;-144.48;54.60
10688;BME280;5392;42.688;23.298;2023-03-14T13:07:32;57388.38;;;-144.48;54.59
10688;BME280;5392;42.688;23.298;2023-03-14T13:13:03;57369.59;;;-144.48;54.53
10688;BME280;5392;42.688;23.298;2023-03-14T13:15:45;57313.22;;;-144.48;54.94
10688;BME280;5392;42.688;23.298;2023-03-14T13:18:17;57354.97;;;-144.48;54.43
10688;BME280;5392;42.688;23.298;2023-03-14T13:20:51;57380.03;;;-144.48;54.91
10688;BME280;5392;42.688;23.298;2023-03-14T13:23:28;57390.47;;;-144.48;54.97
10688;BME280;5392;42.688;23.298;2023-03-14T13:25:56;57346.63;;;-144.48;54.71
10688;BME280;5392;42.688;23.298;2023-03-14T13:28:23;57371.69;;;-144.48;54.33
10688;BME280;5392;42.688;23.298;2023-03-14T13:30:55;57382.13;;;-144.48;54.25
10688;BME280;5392;42.688;23.298;2023-03-14T13:33:23;57386.28;;;-144.48;54.40
10688;BME280;5392;42.688;23.298;2023-03-14T13:36:02;57354.97;;;-144.48;54.38
10688;BME280;5392;42.688;23.298;2023-03-14T13:38:32;57359.16;;;-144.48;54.33
10688;BME280;5392;42.688;23.298;2023-03-14T13:41:03;57388.38;;;-144.48;54.06
10688;BME280;5392;42.688;23.298;2023-03-14T13:43:36;57336.19;;;-144.48;54.15
10688;BME280;5392;42.688;23.298;2023-03-14T13:46:23;57363.31;;;-144.48;53.95
10688;BME280;5392;42.688;23.298;2023-03-14T13:48:55;57380.03;;;-144.48;54.13